Aurora, Texas
Current Conditions -  °F | °C
As of 10:53 PM on Sunday 23 Nov 2014 (Local Time) from KAFW Reporting Station
Clear Clear  
Wind Chill: 43°   Ceiling: Unl
Heat Index: 48°   Visibility: 10mi
Dew Point: 37°   Wind: 12mph
Humidity: 66%   Direction: 320°NW
Pressure: 29.82"   Gusts: NA
Location:  33.0495°N, 97.45°W
Report Text: KAFW 240453Z 32010KT 10SM CLR 09/03 A2982 RMK AO2 SLP094 T00890028
Loading
Personal Weather Stations






























Interactive Weather Map New forecast layout! Learn more

10-Day Weather Forecast

Advertisements
Track Severe Weather on mobile